createdAt,value
2024-02-12T00:01:30.922Z,83.24
2024-02-12T00:04:04.934Z,83.42
2024-02-12T00:06:39.495Z,83.45
2024-02-12T00:09:11.347Z,83.42
2024-02-12T00:11:45.198Z,83.43
2024-02-12T00:14:18.743Z,83.44
2024-02-12T00:16:50.025Z,83.48
2024-02-12T00:19:19.009Z,83.58
2024-02-12T00:21:50.112Z,83.60
2024-02-12T00:24:22.803Z,83.72
2024-02-12T00:26:52.984Z,83.61
2024-02-12T00:29:27.952Z,83.65
2024-02-12T00:31:59.753Z,83.69
2024-02-12T00:34:30.040Z,83.80
2024-02-12T00:37:05.312Z,83.78
2024-02-12T00:39:34.069Z,83.91
2024-02-12T00:42:13.846Z,83.96
2024-02-12T00:44:45.706Z,84.14
2024-02-12T00:47:17.746Z,84.23
2024-02-12T00:50:00.797Z,84.44
2024-02-12T00:52:29.815Z,84.66
2024-02-12T00:55:15.280Z,84.74
2024-02-12T00:57:52.775Z,84.79
2024-02-12T01:00:38.227Z,84.78
2024-02-12T01:03:23.731Z,84.76
2024-02-12T01:05:54.691Z,84.78
2024-02-12T01:08:54.479Z,84.82
2024-02-12T01:11:25.654Z,84.82
2024-02-12T01:14:01.314Z,84.83
2024-02-12T01:16:47.496Z,84.85
2024-02-12T01:19:19.013Z,84.89
2024-02-12T01:22:02.679Z,84.96
2024-02-12T01:24:44.481Z,84.99
2024-02-12T01:27:19.745Z,84.99
2024-02-12T01:29:53.272Z,85.01
2024-02-12T01:32:53.394Z,85.03
2024-02-12T01:35:38.673Z,85.01
2024-02-12T01:38:14.130Z,85.05
2024-02-12T01:40:56.142Z,85.08
2024-02-12T01:43:44.722Z,85.09
2024-02-12T01:46:25.211Z,85.20
2024-02-12T01:49:19.787Z,85.21
2024-02-12T01:52:06.844Z,85.18
2024-02-12T01:54:43.546Z,85.24
2024-02-12T01:57:15.678Z,85.22
2024-02-12T01:59:47.442Z,85.30
2024-02-12T02:02:23.967Z,85.24
2024-02-12T02:05:11.000Z,85.30
2024-02-12T02:07:58.702Z,85.27
2024-02-12T02:10:41.072Z,85.31
2024-02-12T02:13:19.557Z,85.31
2024-02-12T02:16:04.425Z,85.23
2024-02-12T02:18:33.100Z,85.25
2024-02-12T02:21:01.980Z,85.24
2024-02-12T02:23:45.336Z,85.23
2024-02-12T02:26:27.866Z,85.26
2024-02-12T02:29:02.733Z,85.28
2024-02-12T02:31:33.406Z,85.32
2024-02-12T02:34:03.763Z,85.39
2024-02-12T02:36:45.308Z,85.36
2024-02-12T02:39:21.568Z,85.31
2024-02-12T02:42:16.517Z,85.33
2024-02-12T02:44:49.547Z,85.31
2024-02-12T02:47:22.963Z,85.36
2024-02-12T02:49:53.175Z,85.42
2024-02-12T02:52:23.856Z,85.51
2024-02-12T02:54:51.925Z,85.58
2024-02-12T02:57:20.013Z,85.62
2024-02-12T02:59:48.512Z,85.67
2024-02-12T03:02:32.708Z,85.70
2024-02-12T03:05:06.270Z,85.65
2024-02-12T03:07:37.770Z,85.68
2024-02-12T03:10:15.818Z,85.65
2024-02-12T03:12:51.498Z,85.63
2024-02-12T03:15:49.590Z,85.65
2024-02-12T03:18:49.561Z,85.66
2024-02-12T03:21:22.098Z,85.58
2024-02-12T03:24:08.742Z,85.58
2024-02-12T03:26:38.939Z,85.58
2024-02-12T03:29:14.151Z,85.52
2024-02-12T03:31:43.862Z,85.46
2024-02-12T03:34:33.077Z,85.47
2024-02-12T03:37:10.600Z,85.45
2024-02-12T03:40:05.971Z,85.55
2024-02-12T03:42:34.153Z,85.63
2024-02-12T03:45:06.924Z,85.67
2024-02-12T03:47:43.339Z,85.74
2024-02-12T03:50:48.248Z,85.83
2024-02-12T03:53:43.380Z,85.86
2024-02-12T03:56:51.394Z,85.76
2024-02-12T03:59:39.535Z,85.77
2024-02-12T04:02:08.997Z,85.81
2024-02-12T04:04:50.644Z,85.91
2024-02-12T04:07:43.886Z,86.00
2024-02-12T04:10:39.866Z,86.03
2024-02-12T04:13:47.262Z,86.07
2024-02-12T04:19:26.106Z,86.10
2024-02-12T04:21:54.269Z,86.14
2024-02-12T04:24:24.662Z,86.11
2024-02-12T04:26:58.310Z,86.21
2024-02-12T04:29:34.048Z,86.29
2024-02-12T04:32:10.322Z,86.31
2024-02-12T04:34:45.963Z,86.35
2024-02-12T04:37:55.902Z,86.22
2024-02-12T04:40:36.383Z,86.18
2024-02-12T04:47:21.988Z,86.18
2024-02-12T04:49:50.051Z,86.16
2024-02-12T04:52:27.861Z,86.24
2024-02-12T04:55:50.081Z,86.23
2024-02-12T04:58:27.739Z,86.49
2024-02-12T05:14:49.080Z,86.80
2024-02-12T05:17:30.489Z,86.71
2024-02-12T05:20:21.084Z,86.49
2024-02-12T05:23:13.691Z,86.12
2024-02-12T05:26:19.685Z,85.87
2024-02-12T05:28:55.335Z,85.68
2024-02-12T05:31:27.237Z,85.59
2024-02-12T05:33:55.632Z,85.46
2024-02-12T05:36:32.176Z,85.39
2024-02-12T05:39:11.148Z,85.47
2024-02-12T05:41:38.943Z,85.52
2024-02-12T05:44:06.729Z,85.64
2024-02-12T05:46:35.446Z,85.78
2024-02-12T05:49:04.947Z,85.88
2024-02-12T05:51:34.146Z,85.99
2024-02-12T05:54:02.617Z,86.15
2024-02-12T05:56:30.964Z,86.22
2024-02-12T05:58:58.804Z,86.33
2024-02-12T06:01:26.780Z,86.42
2024-02-12T06:03:54.696Z,86.57
2024-02-12T06:06:22.845Z,86.60
2024-02-12T06:08:50.885Z,86.60
2024-02-12T06:11:18.797Z,86.61
2024-02-12T06:13:46.621Z,86.62
2024-02-12T06:16:14.974Z,86.62
2024-02-12T06:18:42.867Z,86.49
2024-02-12T06:21:10.691Z,86.41
2024-02-12T06:23:38.625Z,86.36
2024-02-12T06:26:07.107Z,86.40
2024-02-12T06:28:35.927Z,86.45
2024-02-12T06:31:04.137Z,86.46
2024-02-12T06:33:31.971Z,86.56
2024-02-12T06:36:03.132Z,86.53
2024-02-12T06:38:31.269Z,86.58
2024-02-12T06:41:02.381Z,86.61
2024-02-12T06:43:30.223Z,86.67
2024-02-12T06:45:58.510Z,86.79
2024-02-12T06:48:26.353Z,86.91
2024-02-12T06:50:54.782Z,86.98
2024-02-12T06:53:22.923Z,87.03
2024-02-12T06:55:50.778Z,87.09
2024-02-12T06:58:18.582Z,87.09
2024-02-12T07:00:46.443Z,87.14
2024-02-12T07:03:14.636Z,87.23
2024-02-12T07:05:42.622Z,87.28
2024-02-12T07:08:13.159Z,87.34
2024-02-12T07:10:40.958Z,87.41
2024-02-12T07:13:08.673Z,87.46
2024-02-12T07:15:37.381Z,87.48
2024-02-12T07:18:05.517Z,87.49
2024-02-12T07:20:33.387Z,87.50
2024-02-12T07:23:01.384Z,87.51
2024-02-12T07:25:29.334Z,87.53
2024-02-12T07:27:57.122Z,87.55
2024-02-12T07:30:24.891Z,87.58
2024-02-12T07:32:52.700Z,87.59
2024-02-12T07:35:20.590Z,87.57
2024-02-12T07:37:50.422Z,87.59
2024-02-12T07:40:18.474Z,87.60
2024-02-12T07:42:46.288Z,87.59
2024-02-12T07:45:15.261Z,87.57
2024-02-12T07:47:44.810Z,87.56
2024-02-12T07:50:14.122Z,87.56
2024-02-12T07:52:42.090Z,87.52
2024-02-12T07:55:11.847Z,87.49
2024-02-12T07:57:41.792Z,87.51
2024-02-12T08:00:15.683Z,87.51
2024-02-12T08:02:46.500Z,87.51
2024-02-12T08:05:16.991Z,87.54
2024-02-12T08:07:56.681Z,87.52
2024-02-12T08:10:30.618Z,87.49
2024-02-12T08:12:58.773Z,87.47
2024-02-12T08:15:27.418Z,87.43
2024-02-12T08:17:55.437Z,87.41
2024-02-12T08:20:23.658Z,87.37
2024-02-12T08:22:51.728Z,87.33
2024-02-12T08:25:19.440Z,87.31
2024-02-12T08:27:47.604Z,87.28
2024-02-12T08:30:15.981Z,87.23
2024-02-12T08:32:43.843Z,87.17
2024-02-12T08:35:11.989Z,87.08
2024-02-12T08:37:40.720Z,87.04
2024-02-12T08:40:08.888Z,87.02
2024-02-12T08:42:38.446Z,86.99
2024-02-12T08:45:06.680Z,86.95
2024-02-12T08:47:34.636Z,86.91
2024-02-12T08:50:05.133Z,86.82
2024-02-12T08:52:32.924Z,86.77
2024-02-12T08:55:07.557Z,86.72
2024-02-12T08:57:35.501Z,86.59
2024-02-12T09:00:05.589Z,86.47
2024-02-12T09:02:33.440Z,86.33
2024-02-12T09:05:02.880Z,86.20
2024-02-12T09:07:30.636Z,86.06
2024-02-12T09:09:58.472Z,85.92
2024-02-12T09:12:33.399Z,85.77
2024-02-12T09:15:15.942Z,85.61
2024-02-12T09:17:46.366Z,85.57
2024-02-12T09:20:16.060Z,85.36
2024-02-12T09:22:44.529Z,85.20
2024-02-12T09:25:13.684Z,85.07
2024-02-12T09:27:47.265Z,84.86
2024-02-12T09:30:17.739Z,84.67
2024-02-12T09:32:46.263Z,84.60
2024-02-12T09:35:20.011Z,84.41
2024-02-12T09:37:49.004Z,84.28
2024-02-12T09:40:20.713Z,83.80
2024-02-12T09:42:49.272Z,83.22
2024-02-12T09:45:18.181Z,82.97
2024-02-12T09:47:47.327Z,82.65
2024-02-12T09:50:16.609Z,82.76
2024-02-12T09:52:46.317Z,82.52
2024-02-12T09:55:15.702Z,82.22
2024-02-12T09:57:45.381Z,82.34
2024-02-12T10:00:14.017Z,82.46
2024-02-12T10:02:42.654Z,82.29
2024-02-12T10:05:14.102Z,82.21
2024-02-12T10:07:42.186Z,81.78
2024-02-12T10:10:13.500Z,81.68
2024-02-12T10:12:42.420Z,81.92
2024-02-12T10:15:15.059Z,81.85
2024-02-12T10:17:44.291Z,81.21
2024-02-12T10:20:12.444Z,81.23
2024-02-12T10:22:41.365Z,81.53
2024-02-12T10:25:12.441Z,81.75
2024-02-12T10:27:40.585Z,81.24
2024-02-12T10:30:09.936Z,81.20
2024-02-12T10:32:39.599Z,81.32
2024-02-12T10:35:12.746Z,81.46
2024-02-12T10:37:40.644Z,80.99
2024-02-12T10:40:15.198Z,80.59
2024-02-12T10:42:53.260Z,80.70
2024-02-12T10:45:21.381Z,80.61
2024-02-12T10:47:49.865Z,80.54
2024-02-12T10:50:19.626Z,80.57
2024-02-12T10:52:49.442Z,80.41
2024-02-12T10:55:18.321Z,80.45
2024-02-12T10:57:48.065Z,80.39
2024-02-12T11:03:37.627Z,80.06
2024-02-12T11:06:12.615Z,79.87
2024-02-12T11:08:47.757Z,79.95
2024-02-12T11:11:31.143Z,79.92
2024-02-12T11:14:02.830Z,79.95
2024-02-12T11:16:32.779Z,79.93
2024-02-12T11:19:03.598Z,79.96
2024-02-12T11:21:37.141Z,79.96
2024-02-12T11:24:05.860Z,79.98
2024-02-12T11:26:50.351Z,79.99
2024-02-12T11:29:19.281Z,79.98
2024-02-12T11:31:50.221Z,79.95
2024-02-12T11:34:20.373Z,79.75
2024-02-12T11:36:59.211Z,79.76
2024-02-12T11:39:27.087Z,79.82
2024-02-12T11:41:54.908Z,79.88
2024-02-12T11:44:22.870Z,79.74
2024-02-12T11:46:58.552Z,79.74
2024-02-12T11:49:26.899Z,79.70
2024-02-12T11:51:57.075Z,79.61
2024-02-12T11:54:25.129Z,79.58
2024-02-12T11:56:53.189Z,79.59
2024-02-12T11:59:23.475Z,79.60
2024-02-12T12:01:52.097Z,79.53
2024-02-12T12:04:19.974Z,79.57
2024-02-12T12:06:48.021Z,79.71
2024-02-12T12:09:22.353Z,79.64
2024-02-12T12:11:50.929Z,79.42
2024-02-12T12:14:19.925Z,79.25
2024-02-12T12:17:27.653Z,78.98
2024-02-12T12:19:38.453Z,78.81
2024-02-12T12:22:18.747Z,78.79
2024-02-12T12:24:46.689Z,78.82
2024-02-12T12:27:27.625Z,78.78
2024-02-12T12:29:58.226Z,78.71
2024-02-12T12:32:26.563Z,78.77
2024-02-12T12:34:54.635Z,78.83
2024-02-12T12:37:22.535Z,78.84
2024-02-12T12:39:50.322Z,78.93
2024-02-12T12:42:19.224Z,78.93
2024-02-12T12:44:47.606Z,78.82
2024-02-12T12:47:15.634Z,78.71
2024-02-12T12:49:43.479Z,78.41
2024-02-12T12:52:11.412Z,78.35
2024-02-12T12:54:40.911Z,78.49
2024-02-12T12:57:08.721Z,78.63
2024-02-12T12:59:36.823Z,78.75
2024-02-12T13:02:07.699Z,78.72
2024-02-12T13:04:35.577Z,78.78
2024-02-12T13:07:05.043Z,78.95
2024-02-12T13:09:33.168Z,79.01
2024-02-12T13:12:01.095Z,78.98
2024-02-12T13:14:29.042Z,78.96
2024-02-12T13:16:56.872Z,78.97
2024-02-12T13:19:24.714Z,79.05
2024-02-12T13:21:52.958Z,79.04
2024-02-12T13:24:21.634Z,79.06
2024-02-12T13:26:49.683Z,78.97
2024-02-12T13:29:24.618Z,78.79
2024-02-12T13:31:54.255Z,78.97
2024-02-12T13:34:22.128Z,79.06
2024-02-12T13:36:53.574Z,79.14
2024-02-12T13:39:21.556Z,79.23
2024-02-12T13:41:50.201Z,79.29
2024-02-12T13:44:18.212Z,79.29
2024-02-12T13:46:47.943Z,79.29
2024-02-12T13:49:17.325Z,79.26
2024-02-12T13:51:45.985Z,79.28
2024-02-12T13:54:13.870Z,79.34
2024-02-12T13:56:43.191Z,79.36
2024-02-12T13:59:11.193Z,79.35
2024-02-12T14:01:47.883Z,79.41
2024-02-12T14:04:21.684Z,79.48
2024-02-12T14:06:49.670Z,79.55
2024-02-12T14:09:22.070Z,79.63
2024-02-12T14:11:52.967Z,79.71
2024-02-12T14:14:20.996Z,79.79
2024-02-12T14:16:48.900Z,79.79
2024-02-12T14:19:17.403Z,79.83
2024-02-12T14:21:45.339Z,79.91
2024-02-12T14:24:13.148Z,79.93
2024-02-12T14:26:58.771Z,79.97
2024-02-12T14:29:28.727Z,79.94
2024-02-12T14:32:36.948Z,79.93
2024-02-12T14:34:47.087Z,79.97
2024-02-12T14:37:17.442Z,80.02
2024-02-12T14:39:45.704Z,80.01
2024-02-12T14:42:13.515Z,79.89
2024-02-12T14:44:41.377Z,79.88
2024-02-12T14:47:09.306Z,79.89
2024-02-12T14:49:37.335Z,79.90
2024-02-12T14:52:08.226Z,79.93
2024-02-12T14:54:36.337Z,80.03
2024-02-12T14:57:05.115Z,80.06
2024-02-12T14:59:32.920Z,80.10
2024-02-12T15:02:01.082Z,80.14
2024-02-12T15:04:29.648Z,80.13
2024-02-12T15:07:10.682Z,80.20
2024-02-12T15:09:48.144Z,80.27
2024-02-12T15:12:22.976Z,80.33
2024-02-12T15:14:51.833Z,80.39
2024-02-12T15:17:20.164Z,80.47
2024-02-12T15:19:49.622Z,80.57
2024-02-12T15:22:23.177Z,80.67
2024-02-12T15:24:51.624Z,80.74
2024-02-12T15:27:19.611Z,80.84
2024-02-12T15:29:50.182Z,80.89
2024-02-12T15:32:18.068Z,80.94
2024-02-12T15:34:47.069Z,80.95
2024-02-12T15:37:19.339Z,80.99
2024-02-12T15:39:58.783Z,81.01
2024-02-12T15:42:27.978Z,81.08
2024-02-12T15:44:56.586Z,81.11
2024-02-12T15:47:25.444Z,81.12
2024-02-12T15:49:55.557Z,81.14
2024-02-12T15:52:26.836Z,81.15
2024-02-12T15:54:55.027Z,81.23
2024-02-12T15:57:25.966Z,81.31
2024-02-12T15:59:53.982Z,81.39
2024-02-12T16:02:21.962Z,81.46
2024-02-12T16:04:49.904Z,81.53
2024-02-12T16:07:22.409Z,81.60
2024-02-12T16:09:50.365Z,81.69
2024-02-12T16:12:18.318Z,81.74
2024-02-12T16:14:49.760Z,81.78
2024-02-12T16:17:19.125Z,81.81
2024-02-12T16:19:50.372Z,81.81
2024-02-12T16:22:18.962Z,81.80
2024-02-12T16:24:49.856Z,81.83
2024-02-12T16:27:18.123Z,81.89
2024-02-12T16:29:48.374Z,81.99
2024-02-12T16:32:19.652Z,82.12
2024-02-12T16:34:49.933Z,82.21
2024-02-12T16:37:18.734Z,82.24
2024-02-12T16:39:51.555Z,82.30
2024-02-12T16:42:20.113Z,82.35
2024-02-12T16:44:48.762Z,82.38
2024-02-12T16:47:18.887Z,82.39
2024-02-12T16:49:47.553Z,82.45
2024-02-12T16:52:18.082Z,82.53
2024-02-12T16:54:46.210Z,82.57
2024-02-12T16:57:14.557Z,82.64
2024-02-12T17:17:20.469Z,83.00
2024-02-12T17:19:59.334Z,83.11
2024-02-12T17:22:29.142Z,83.14
2024-02-12T17:24:58.849Z,83.21
2024-02-12T17:27:30.009Z,83.24
2024-02-12T17:30:05.621Z,83.23
2024-02-12T17:32:40.721Z,83.22
2024-02-12T17:35:12.576Z,83.18
2024-02-12T17:37:43.023Z,83.19
2024-02-12T17:40:12.605Z,83.23
2024-02-12T17:42:40.519Z,83.29
2024-02-12T17:45:11.349Z,83.40
2024-02-12T17:47:42.400Z,83.46
2024-02-12T17:50:11.189Z,83.53
2024-02-12T17:52:39.268Z,83.57
2024-02-12T17:55:07.560Z,83.60
2024-02-12T17:57:36.070Z,83.58
2024-02-12T18:00:05.311Z,83.54
2024-02-12T18:02:33.370Z,83.53
2024-02-12T18:05:01.377Z,83.53
2024-02-12T18:07:29.336Z,83.57
2024-02-12T18:09:57.130Z,83.59
2024-02-12T18:12:24.941Z,83.58
2024-02-12T18:14:52.831Z,83.52
2024-02-12T18:17:25.441Z,83.51
2024-02-12T18:19:57.569Z,83.52
2024-02-12T18:22:25.713Z,83.50
2024-02-12T18:24:53.888Z,83.54
2024-02-12T18:27:22.109Z,83.58
2024-02-12T18:30:07.210Z,83.64
2024-02-12T18:37:09.359Z,83.74
2024-02-12T18:40:28.374Z,83.75
2024-02-12T18:42:53.020Z,83.79
2024-02-12T18:45:28.292Z,83.81
2024-02-12T18:48:00.810Z,83.83
2024-02-12T18:50:33.204Z,83.87
2024-02-12T18:53:11.539Z,83.89
2024-02-12T18:55:50.782Z,83.92
2024-02-12T18:58:28.016Z,83.94
2024-02-12T19:00:57.502Z,83.94
2024-02-12T19:03:51.611Z,83.93
2024-02-12T19:06:45.819Z,83.96
2024-02-12T19:09:16.590Z,83.92
2024-02-12T19:11:55.528Z,83.94
2024-02-12T19:14:33.395Z,83.96
2024-02-12T19:17:02.639Z,83.93
2024-02-12T19:19:35.884Z,83.93
2024-02-12T19:22:07.010Z,83.95
2024-02-12T19:24:35.811Z,83.98
2024-02-12T19:27:28.241Z,84.02
2024-02-12T19:30:16.749Z,84.05
2024-02-12T19:33:02.808Z,84.06
2024-02-12T19:38:50.088Z,84.07
2024-02-12T19:41:18.333Z,84.10
2024-02-12T19:43:49.601Z,84.10
2024-02-12T19:46:33.340Z,84.12
2024-02-12T19:49:15.125Z,84.12
2024-02-12T19:51:50.259Z,84.15
2024-02-12T19:54:18.087Z,84.14
2024-02-12T19:56:46.351Z,84.13
2024-02-12T19:59:14.326Z,84.16
2024-02-12T20:01:43.639Z,84.17
2024-02-12T20:04:11.510Z,84.18
2024-02-12T20:06:39.569Z,84.21
2024-02-12T20:09:09.206Z,84.22
2024-02-12T20:11:37.460Z,84.24
2024-02-12T20:14:06.227Z,84.25
2024-02-12T20:16:34.100Z,84.25
2024-02-12T20:19:02.166Z,84.24
2024-02-12T20:21:30.052Z,84.20
2024-02-12T20:23:59.124Z,84.21
2024-02-12T20:26:27.054Z,84.20
2024-02-12T20:28:54.875Z,84.22
2024-02-12T20:31:22.750Z,84.24
2024-02-12T20:33:50.776Z,84.26
2024-02-12T20:36:18.683Z,84.29
2024-02-12T20:38:46.571Z,84.29
2024-02-12T20:41:21.803Z,84.30
2024-02-12T20:43:49.759Z,84.32
2024-02-12T20:46:17.626Z,84.38
2024-02-12T20:48:46.194Z,84.36
2024-02-12T20:51:14.504Z,84.35
2024-02-12T20:53:42.511Z,84.19
2024-02-12T20:56:10.533Z,84.16
2024-02-12T20:58:38.364Z,84.16
2024-02-12T21:01:06.320Z,84.06
2024-02-12T21:03:34.177Z,84.04
2024-02-12T21:06:02.338Z,83.97
2024-02-12T21:08:30.287Z,83.91
2024-02-12T21:10:58.101Z,83.93
2024-02-12T21:13:26.027Z,83.93
2024-02-12T21:15:57.863Z,83.88
2024-02-12T21:18:25.740Z,83.84
2024-02-12T21:20:53.711Z,83.82
2024-02-12T21:23:24.293Z,83.84
2024-02-12T21:25:52.221Z,83.90
2024-02-12T21:28:20.149Z,83.89
2024-02-12T21:30:48.005Z,83.94
2024-02-12T21:33:16.398Z,83.98
2024-02-12T21:35:44.613Z,83.97
2024-02-12T21:38:13.205Z,84.00
2024-02-12T21:40:43.279Z,84.08
2024-02-12T21:43:11.242Z,84.07
2024-02-12T21:45:39.137Z,84.09
2024-02-12T21:48:08.151Z,84.14
2024-02-12T21:50:38.057Z,84.18
2024-02-12T21:53:09.960Z,84.21
2024-02-12T21:55:37.912Z,84.19
2024-02-12T21:58:08.168Z,84.25
2024-02-12T22:00:36.049Z,84.25
2024-02-12T22:03:05.579Z,84.24
2024-02-12T22:05:34.005Z,84.31
2024-02-12T22:08:02.006Z,84.37
2024-02-12T22:10:30.637Z,84.45
2024-02-12T22:12:58.751Z,84.51
2024-02-12T22:15:27.597Z,84.51
2024-02-12T22:17:55.688Z,84.52
2024-02-12T22:20:23.674Z,84.52
2024-02-12T22:22:53.349Z,84.51
2024-02-12T22:25:22.052Z,84.53
2024-02-12T22:27:49.869Z,84.58
2024-02-12T22:30:17.824Z,84.62
2024-02-12T22:32:45.735Z,84.68
2024-02-12T22:35:13.676Z,84.70
2024-02-12T22:37:42.255Z,84.72
2024-02-12T22:40:10.647Z,84.75
2024-02-12T22:42:39.970Z,84.82
2024-02-12T22:45:08.252Z,84.83
2024-02-12T22:47:36.330Z,84.83
2024-02-12T22:50:07.289Z,84.85
2024-02-12T22:52:35.186Z,84.86
2024-02-12T22:55:03.779Z,84.85
2024-02-12T22:57:32.162Z,84.86
2024-02-12T23:00:00.025Z,84.83
2024-02-12T23:02:28.023Z,84.82
2024-02-12T23:04:57.411Z,84.81
2024-02-12T23:07:27.830Z,84.83
2024-02-12T23:09:56.416Z,84.87
2024-02-12T23:12:28.259Z,84.90
2024-02-12T23:14:56.644Z,84.94
2024-02-12T23:17:25.691Z,84.95
2024-02-12T23:19:58.492Z,84.92
2024-02-12T23:22:26.474Z,84.84
2024-02-12T23:24:54.352Z,84.74
2024-02-12T23:27:22.294Z,84.72
2024-02-12T23:29:50.159Z,84.74
2024-02-12T23:32:18.439Z,84.76
2024-02-12T23:34:46.548Z,84.82
2024-02-12T23:37:14.496Z,84.84
2024-02-12T23:39:42.372Z,84.87
2024-02-12T23:42:10.215Z,84.90
2024-02-12T23:44:38.060Z,84.89
2024-02-12T23:47:07.476Z,84.80
2024-02-12T23:49:35.328Z,84.83
2024-02-12T23:52:07.357Z,84.78
2024-02-12T23:54:35.161Z,84.82
2024-02-12T23:57:03.207Z,84.77
2024-02-12T23:59:31.155Z,84.74
